sensor_id;sensor_type;location;lat;lon;timestamp;pressure;altitude;pressure_sealevel;temperature;humidity
55460;BME280;41326;45.302;-122.946;2023-09-19T00:01:03;101184.54;;;21.94;41.24
55460;BME280;41326;45.302;-122.946;2023-09-19T00:03:34;101182.97;;;21.96;41.29
55460;BME280;41326;45.302;-122.946;2023-09-19T00:06:04;101171.16;;;21.88;40.03
55460;BME280;41326;45.302;-122.946;2023-09-19T00:08:34;101175.02;;;21.77;40.52
55460;BME280;41326;45.302;-122.946;2023-09-19T00:11:04;101176.17;;;21.77;40.99
55460;BME280;41326;45.302;-122.946;2023-09-19T00:13:35;101176.85;;;21.79;40.89
55460;BME280;41326;45.302;-122.946;2023-09-19T00:16:08;101177.32;;;21.78;41.06
55460;BME280;41326;45.302;-122.946;2023-09-19T00:18:35;101176.81;;;21.77;40.88
55460;BME280;41326;45.302;-122.946;2023-09-19T00:21:05;101184.67;;;21.74;41.01
55460;BME280;41326;45.302;-122.946;2023-09-19T00:23:35;101188.89;;;21.75;40.78
55460;BME280;41326;45.302;-122.946;2023-09-19T00:26:06;101194.72;;;21.74;40.91
55460;BME280;41326;45.302;-122.946;2023-09-19T00:28:36;101190.32;;;21.72;40.93
55460;BME280;41326;45.302;-122.946;2023-09-19T00:31:07;101190.54;;;21.68;40.75
55460;BME280;41326;45.302;-122.946;2023-09-19T00:33:37;101187.30;;;21.66;40.81
55460;BME280;41326;45.302;-122.946;2023-09-19T00:36:07;101182.01;;;21.67;40.94
55460;BME280;41326;45.302;-122.946;2023-09-19T00:38:37;101176.38;;;21.69;41.10
55460;BME280;41326;45.302;-122.946;2023-09-19T00:41:07;101175.33;;;21.66;41.08
55460;BME280;41326;45.302;-122.946;2023-09-19T00:43:38;101177.81;;;21.67;41.25
55460;BME280;41326;45.302;-122.946;2023-09-19T00:46:08;101182.00;;;21.75;41.04
55460;BME280;41326;45.302;-122.946;2023-09-19T00:48:43;101174.48;;;21.75;40.90
55460;BME280;41326;45.302;-122.946;2023-09-19T00:51:10;101170.10;;;21.75;42.05
55460;BME280;41326;45.302;-122.946;2023-09-19T00:53:38;101162.75;;;21.64;40.61
55460;BME280;41326;45.302;-122.946;2023-09-19T00:56:09;101163.71;;;21.57;39.48
55460;BME280;41326;45.302;-122.946;2023-09-19T00:58:39;101161.08;;;21.54;39.85
55460;BME280;41326;45.302;-122.946;2023-09-19T01:01:09;101159.87;;;21.55;40.32
55460;BME280;41326;45.302;-122.946;2023-09-19T01:03:40;101154.09;;;21.59;40.30
55460;BME280;41326;45.302;-122.946;2023-09-19T01:06:10;101162.33;;;21.60;40.07
55460;BME280;41326;45.302;-122.946;2023-09-19T01:08:41;101155.57;;;21.57;39.70
55460;BME280;41326;45.302;-122.946;2023-09-19T01:11:21;101157.60;;;21.55;39.73
55460;BME280;41326;45.302;-122.946;2023-09-19T01:13:48;101165.08;;;21.58;39.57
55460;BME280;41326;45.302;-122.946;2023-09-19T01:16:19;101163.62;;;21.60;39.20
55460;BME280;41326;45.302;-122.946;2023-09-19T01:18:49;101161.62;;;21.59;39.10
55460;BME280;41326;45.302;-122.946;2023-09-19T01:21:18;101162.86;;;21.58;38.85
55460;BME280;41326;45.302;-122.946;2023-09-19T01:26:22;101165.31;;;21.65;39.03
55460;BME280;41326;45.302;-122.946;2023-09-19T01:28:52;101167.59;;;21.65;39.06
55460;BME280;41326;45.302;-122.946;2023-09-19T01:31:15;101165.69;;;21.62;38.25
55460;BME280;41326;45.302;-122.946;2023-09-19T01:36:13;101172.09;;;21.66;38.61
55460;BME280;41326;45.302;-122.946;2023-09-19T01:38:46;101170.25;;;21.60;38.52
55460;BME280;41326;45.302;-122.946;2023-09-19T01:41:19;101168.34;;;21.57;38.09
55460;BME280;41326;45.302;-122.946;2023-09-19T01:43:48;101160.64;;;21.53;38.40
55460;BME280;41326;45.302;-122.946;2023-09-19T01:46:21;101163.28;;;21.48;37.96
55460;BME280;41326;45.302;-122.946;2023-09-19T01:48:55;101163.68;;;21.45;38.40
55460;BME280;41326;45.302;-122.946;2023-09-19T01:51:18;101165.51;;;21.47;38.63
55460;BME280;41326;45.302;-122.946;2023-09-19T01:53:51;101165.26;;;21.43;38.21
55460;BME280;41326;45.302;-122.946;2023-09-19T01:56:21;101163.77;;;21.33;37.72
55460;BME280;41326;45.302;-122.946;2023-09-19T01:58:51;101158.49;;;21.30;38.47
55460;BME280;41326;45.302;-122.946;2023-09-19T02:01:18;101160.92;;;21.15;38.44
55460;BME280;41326;45.302;-122.946;2023-09-19T02:03:48;101159.65;;;21.04;38.51
55460;BME280;41326;45.302;-122.946;2023-09-19T02:06:19;101155.13;;;21.00;38.66
55460;BME280;41326;45.302;-122.946;2023-09-19T02:08:47;101158.66;;;20.99;39.06
55460;BME280;41326;45.302;-122.946;2023-09-19T02:11:17;101158.46;;;20.97;39.35
55460;BME280;41326;45.302;-122.946;2023-09-19T02:13:48;101164.57;;;20.96;39.20
55460;BME280;41326;45.302;-122.946;2023-09-19T02:16:18;101167.26;;;20.95;39.60
55460;BME280;41326;45.302;-122.946;2023-09-19T02:18:49;101168.45;;;20.90;39.91
55460;BME280;41326;45.302;-122.946;2023-09-19T02:21:20;101174.22;;;20.89;39.99
55460;BME280;41326;45.302;-122.946;2023-09-19T02:23:50;101175.60;;;20.82;39.66
55460;BME280;41326;45.302;-122.946;2023-09-19T02:26:20;101180.33;;;20.80;40.07
55460;BME280;41326;45.302;-122.946;2023-09-19T02:28:51;101177.23;;;20.75;40.03
55460;BME280;41326;45.302;-122.946;2023-09-19T02:31:20;101175.74;;;20.74;40.87
55460;BME280;41326;45.302;-122.946;2023-09-19T02:33:51;101177.87;;;20.75;41.12
55460;BME280;41326;45.302;-122.946;2023-09-19T02:36:21;101180.73;;;20.77;40.87
55460;BME280;41326;45.302;-122.946;2023-09-19T02:38:51;101181.71;;;20.69;40.84
55460;BME280;41326;45.302;-122.946;2023-09-19T02:41:21;101185.80;;;20.57;40.58
55460;BME280;41326;45.302;-122.946;2023-09-19T02:43:51;101194.83;;;20.55;40.90
55460;BME280;41326;45.302;-122.946;2023-09-19T02:46:21;101195.63;;;20.50;40.81
55460;BME280;41326;45.302;-122.946;2023-09-19T02:48:52;101196.69;;;20.44;40.85
55460;BME280;41326;45.302;-122.946;2023-09-19T02:51:22;101205.25;;;20.30;40.70
55460;BME280;41326;45.302;-122.946;2023-09-19T02:53:52;101208.91;;;20.22;41.14
55460;BME280;41326;45.302;-122.946;2023-09-19T02:56:22;101208.51;;;20.18;41.29
55460;BME280;41326;45.302;-122.946;2023-09-19T02:58:53;101216.78;;;20.17;40.92
55460;BME280;41326;45.302;-122.946;2023-09-19T03:01:23;101221.64;;;20.05;40.52
55460;BME280;41326;45.302;-122.946;2023-09-19T03:03:54;101223.61;;;19.91;40.89
55460;BME280;41326;45.302;-122.946;2023-09-19T03:06:24;101229.84;;;19.88;41.44
55460;BME280;41326;45.302;-122.946;2023-09-19T03:08:54;101230.95;;;19.78;41.27
55460;BME280;41326;45.302;-122.946;2023-09-19T03:11:25;101235.92;;;19.65;41.27
55460;BME280;41326;45.302;-122.946;2023-09-19T03:13:57;101232.03;;;19.53;41.85
55460;BME280;41326;45.302;-122.946;2023-09-19T03:16:25;101229.75;;;19.43;42.28
55460;BME280;41326;45.302;-122.946;2023-09-19T03:18:55;101231.20;;;19.35;41.86
55460;BME280;41326;45.302;-122.946;2023-09-19T03:21:26;101229.50;;;19.23;42.70
55460;BME280;41326;45.302;-122.946;2023-09-19T03:23:56;101233.87;;;19.21;43.25
55460;BME280;41326;45.302;-122.946;2023-09-19T03:26:27;101242.07;;;19.16;43.12
55460;BME280;41326;45.302;-122.946;2023-09-19T03:28:57;101241.66;;;19.23;43.00
55460;BME280;41326;45.302;-122.946;2023-09-19T03:31:27;101241.43;;;19.22;42.61
55460;BME280;41326;45.302;-122.946;2023-09-19T03:33:58;101244.69;;;19.17;43.09
55460;BME280;41326;45.302;-122.946;2023-09-19T03:36:28;101251.16;;;19.09;43.02
55460;BME280;41326;45.302;-122.946;2023-09-19T03:38:58;101250.72;;;18.92;43.08
55460;BME280;41326;45.302;-122.946;2023-09-19T03:42:38;101251.02;;;18.67;43.54
55460;BME280;41326;45.302;-122.946;2023-09-19T03:45:08;101248.63;;;18.54;43.97
55460;BME280;41326;45.302;-122.946;2023-09-19T03:47:39;101253.06;;;18.47;44.35
55460;BME280;41326;45.302;-122.946;2023-09-19T03:50:09;101247.46;;;18.49;44.26
55460;BME280;41326;45.302;-122.946;2023-09-19T03:52:39;101248.49;;;18.48;44.08
55460;BME280;41326;45.302;-122.946;2023-09-19T03:55:09;101241.46;;;18.34;44.06
55460;BME280;41326;45.302;-122.946;2023-09-19T03:57:40;101242.66;;;18.28;44.18
55460;BME280;41326;45.302;-122.946;2023-09-19T04:00:11;101246.29;;;18.20;44.41
55460;BME280;41326;45.302;-122.946;2023-09-19T04:02:40;101251.47;;;18.15;44.55
55460;BME280;41326;45.302;-122.946;2023-09-19T04:05:11;101251.89;;;18.07;44.33
55460;BME280;41326;45.302;-122.946;2023-09-19T04:07:41;101255.85;;;17.96;45.01
55460;BME280;41326;45.302;-122.946;2023-09-19T04:10:12;101260.63;;;17.93;44.88
55460;BME280;41326;45.302;-122.946;2023-09-19T04:15:12;101259.53;;;17.82;45.14
55460;BME280;41326;45.302;-122.946;2023-09-19T04:17:42;101256.70;;;17.86;45.02
55460;BME280;41326;45.302;-122.946;2023-09-19T04:20:13;101258.54;;;17.84;45.44
55460;BME280;41326;45.302;-122.946;2023-09-19T04:22:47;101254.21;;;17.86;45.00
55460;BME280;41326;45.302;-122.946;2023-09-19T04:25:18;101250.57;;;17.86;45.17
55460;BME280;41326;45.302;-122.946;2023-09-19T04:27:49;101252.46;;;17.77;45.40
55460;BME280;41326;45.302;-122.946;2023-09-19T04:30:18;101254.34;;;17.76;45.02
55460;BME280;41326;45.302;-122.946;2023-09-19T04:32:49;101256.39;;;17.74;45.38
55460;BME280;41326;45.302;-122.946;2023-09-19T04:35:19;101250.58;;;17.75;44.92
55460;BME280;41326;45.302;-122.946;2023-09-19T04:37:50;101251.42;;;17.75;44.69
55460;BME280;41326;45.302;-122.946;2023-09-19T04:40:20;101252.16;;;17.62;45.05
55460;BME280;41326;45.302;-122.946;2023-09-19T04:42:53;101243.13;;;17.61;45.19
55460;BME280;41326;45.302;-122.946;2023-09-19T04:45:20;101246.63;;;17.56;44.81
55460;BME280;41326;45.302;-122.946;2023-09-19T04:47:51;101244.58;;;17.52;45.61
55460;BME280;41326;45.302;-122.946;2023-09-19T04:50:22;101244.57;;;17.60;45.55
55460;BME280;41326;45.302;-122.946;2023-09-19T04:52:51;101247.38;;;17.58;45.54
55460;BME280;41326;45.302;-122.946;2023-09-19T04:55:23;101245.00;;;17.76;45.95
55460;BME280;41326;45.302;-122.946;2023-09-19T04:57:53;101247.69;;;18.00;45.78
55460;BME280;41326;45.302;-122.946;2023-09-19T05:00:23;101252.79;;;18.22;45.64
55460;BME280;41326;45.302;-122.946;2023-09-19T05:02:55;101251.98;;;18.41;45.49
55460;BME280;41326;45.302;-122.946;2023-09-19T05:05:23;101254.23;;;18.56;45.33
55460;BME280;41326;45.302;-122.946;2023-09-19T05:07:53;101253.41;;;18.72;45.14
55460;BME280;41326;45.302;-122.946;2023-09-19T05:10:24;101257.11;;;18.83;45.09
55460;BME280;41326;45.302;-122.946;2023-09-19T05:12:54;101257.93;;;18.93;45.08
55460;BME280;41326;45.302;-122.946;2023-09-19T05:15:24;101267.22;;;19.03;45.01
55460;BME280;41326;45.302;-122.946;2023-09-19T05:17:55;101265.23;;;19.11;44.94
55460;BME280;41326;45.302;-122.946;2023-09-19T05:20:25;101267.13;;;19.17;44.93
55460;BME280;41326;45.302;-122.946;2023-09-19T05:22:59;101270.26;;;19.22;44.96
55460;BME280;41326;45.302;-122.946;2023-09-19T05:25:26;101263.93;;;19.28;44.85
55460;BME280;41326;45.302;-122.946;2023-09-19T05:27:59;101264.15;;;19.33;44.81
55460;BME280;41326;45.302;-122.946;2023-09-19T05:30:26;101266.87;;;19.35;44.86
55460;BME280;41326;45.302;-122.946;2023-09-19T05:32:56;101266.62;;;19.38;44.89
55460;BME280;41326;45.302;-122.946;2023-09-19T05:35:27;101265.77;;;19.42;44.88
55460;BME280;41326;45.302;-122.946;2023-09-19T05:37:57;101265.96;;;19.45;44.86
55460;BME280;41326;45.302;-122.946;2023-09-19T05:40:27;101264.09;;;19.46;44.90
55460;BME280;41326;45.302;-122.946;2023-09-19T05:42:58;101268.11;;;19.48;44.93
55460;BME280;41326;45.302;-122.946;2023-09-19T05:45:28;101271.72;;;19.52;44.89
55460;BME280;41326;45.302;-122.946;2023-09-19T05:48:07;101270.88;;;19.54;44.87
55460;BME280;41326;45.302;-122.946;2023-09-19T05:50:28;101266.27;;;19.54;44.89
55460;BME280;41326;45.302;-122.946;2023-09-19T05:52:59;101273.04;;;19.55;44.95
55460;BME280;41326;45.302;-122.946;2023-09-19T05:55:29;101275.77;;;19.59;44.97
55460;BME280;41326;45.302;-122.946;2023-09-19T05:58:00;101274.01;;;19.59;45.06
55460;BME280;41326;45.302;-122.946;2023-09-19T06:00:30;101274.61;;;19.60;45.09
55460;BME280;41326;45.302;-122.946;2023-09-19T06:03:00;101273.50;;;19.60;45.16
55460;BME280;41326;45.302;-122.946;2023-09-19T06:05:31;101271.50;;;19.60;45.18
55460;BME280;41326;45.302;-122.946;2023-09-19T06:08:00;101272.85;;;19.62;45.16
55460;BME280;41326;45.302;-122.946;2023-09-19T06:10:30;101274.78;;;19.62;45.23
55460;BME280;41326;45.302;-122.946;2023-09-19T06:13:00;101275.05;;;19.62;45.28
55460;BME280;41326;45.302;-122.946;2023-09-19T06:15:31;101274.31;;;19.66;45.26
55460;BME280;41326;45.302;-122.946;2023-09-19T06:18:02;101276.60;;;19.65;45.35
55460;BME280;41326;45.302;-122.946;2023-09-19T06:20:31;101271.73;;;19.63;45.43
55460;BME280;41326;45.302;-122.946;2023-09-19T06:23:03;101267.30;;;19.63;45.52
55460;BME280;41326;45.302;-122.946;2023-09-19T06:25:32;101268.68;;;19.66;45.46
55460;BME280;41326;45.302;-122.946;2023-09-19T06:28:02;101266.50;;;19.66;45.46
55460;BME280;41326;45.302;-122.946;2023-09-19T06:30:32;101270.74;;;19.64;45.55
55460;BME280;41326;45.302;-122.946;2023-09-19T06:33:02;101274.60;;;19.67;45.54
55460;BME280;41326;45.302;-122.946;2023-09-19T06:35:34;101273.32;;;19.68;45.55
55460;BME280;41326;45.302;-122.946;2023-09-19T06:38:04;101270.49;;;19.68;45.61
55460;BME280;41326;45.302;-122.946;2023-09-19T06:40:34;101272.93;;;19.68;45.65
55460;BME280;41326;45.302;-122.946;2023-09-19T06:43:04;101268.28;;;19.68;45.69
55460;BME280;41326;45.302;-122.946;2023-09-19T06:45:34;101269.55;;;19.70;45.64
55460;BME280;41326;45.302;-122.946;2023-09-19T06:48:05;101270.23;;;19.71;45.57
55460;BME280;41326;45.302;-122.946;2023-09-19T06:50:35;101280.10;;;19.71;45.58
55460;BME280;41326;45.302;-122.946;2023-09-19T06:53:04;101278.48;;;19.70;45.64
55460;BME280;41326;45.302;-122.946;2023-09-19T06:55:35;101280.47;;;19.72;45.64
55460;BME280;41326;45.302;-122.946;2023-09-19T06:58:06;101282.24;;;19.73;45.65
55460;BME280;41326;45.302;-122.946;2023-09-19T07:00:36;101287.44;;;19.73;45.66
55460;BME280;41326;45.302;-122.946;2023-09-19T07:03:07;101286.85;;;19.73;45.69
55460;BME280;41326;45.302;-122.946;2023-09-19T07:05:37;101282.57;;;19.75;45.65
55460;BME280;41326;45.302;-122.946;2023-09-19T07:08:07;101283.64;;;19.75;45.63
55460;BME280;41326;45.302;-122.946;2023-09-19T07:10:38;101292.37;;;19.71;45.71
55460;BME280;41326;45.302;-122.946;2023-09-19T07:13:08;101299.63;;;19.72;45.71
55460;BME280;41326;45.302;-122.946;2023-09-19T07:15:39;101297.15;;;19.74;45.66
55460;BME280;41326;45.302;-122.946;2023-09-19T07:18:09;101300.20;;;19.75;45.67
55460;BME280;41326;45.302;-122.946;2023-09-19T07:20:38;101307.85;;;19.71;45.80
55460;BME280;41326;45.302;-122.946;2023-09-19T07:23:09;101308.40;;;19.72;45.81
55460;BME280;41326;45.302;-122.946;2023-09-19T07:25:41;101309.76;;;19.71;45.83
55460;BME280;41326;45.302;-122.946;2023-09-19T07:28:10;101309.90;;;19.72;45.81
55460;BME280;41326;45.302;-122.946;2023-09-19T07:30:42;101314.69;;;19.70;45.86
55460;BME280;41326;45.302;-122.946;2023-09-19T07:33:11;101317.04;;;19.70;45.89
55460;BME280;41326;45.302;-122.946;2023-09-19T07:35:44;101321.90;;;19.72;45.89
55460;BME280;41326;45.302;-122.946;2023-09-19T07:38:10;101328.02;;;19.72;45.91
55460;BME280;41326;45.302;-122.946;2023-09-19T07:40:41;101325.83;;;19.71;45.96
55460;BME280;41326;45.302;-122.946;2023-09-19T07:43:11;101326.67;;;19.71;45.99
55460;BME280;41326;45.302;-122.946;2023-09-19T07:45:41;101328.88;;;19.70;46.00
55460;BME280;41326;45.302;-122.946;2023-09-19T07:48:11;101326.86;;;19.70;45.99
55460;BME280;41326;45.302;-122.946;2023-09-19T07:50:41;101322.09;;;19.69;46.03
55460;BME280;41326;45.302;-122.946;2023-09-19T07:53:11;101322.92;;;19.69;46.05
55460;BME280;41326;45.302;-122.946;2023-09-19T07:55:41;101323.57;;;19.68;46.12
55460;BME280;41326;45.302;-122.946;2023-09-19T07:58:11;101319.56;;;19.68;46.13
55460;BME280;41326;45.302;-122.946;2023-09-19T08:00:42;101319.73;;;19.68;46.19
55460;BME280;41326;45.302;-122.946;2023-09-19T08:03:12;101317.95;;;19.69;46.19
55460;BME280;41326;45.302;-122.946;2023-09-19T08:05:42;101318.35;;;19.67;46.22
55460;BME280;41326;45.302;-122.946;2023-09-19T08:08:13;101324.67;;;19.66;46.26
55460;BME280;41326;45.302;-122.946;2023-09-19T08:10:43;101325.89;;;19.66;46.26
55460;BME280;41326;45.302;-122.946;2023-09-19T08:13:13;101329.90;;;19.66;46.30
55460;BME280;41326;45.302;-122.946;2023-09-19T08:15:49;101326.13;;;19.66;46.31
55460;BME280;41326;45.302;-122.946;2023-09-19T08:18:15;101326.35;;;19.65;46.35
55460;BME280;41326;45.302;-122.946;2023-09-19T08:20:49;101327.15;;;19.62;46.44
55460;BME280;41326;45.302;-122.946;2023-09-19T08:23:14;101325.06;;;19.63;46.41
55460;BME280;41326;45.302;-122.946;2023-09-19T08:25:44;101326.44;;;19.64;46.38
55460;BME280;41326;45.302;-122.946;2023-09-19T08:28:15;101327.14;;;19.63;46.37
55460;BME280;41326;45.302;-122.946;2023-09-19T08:30:45;101331.26;;;19.62;46.40
55460;BME280;41326;45.302;-122.946;2023-09-19T08:33:16;101328.90;;;19.63;46.37
55460;BME280;41326;45.302;-122.946;2023-09-19T08:35:46;101330.05;;;19.62;46.40
55460;BME280;41326;45.302;-122.946;2023-09-19T08:38:17;101328.69;;;19.61;46.43
55460;BME280;41326;45.302;-122.946;2023-09-19T08:40:47;101330.04;;;19.61;46.44
55460;BME280;41326;45.302;-122.946;2023-09-19T08:43:18;101324.75;;;19.60;46.47
55460;BME280;41326;45.302;-122.946;2023-09-19T08:45:47;101327.94;;;19.59;46.47
55460;BME280;41326;45.302;-122.946;2023-09-19T08:48:26;101332.23;;;19.58;46.44
55460;BME280;41326;45.302;-122.946;2023-09-19T08:50:54;101334.27;;;19.58;46.44
55460;BME280;41326;45.302;-122.946;2023-09-19T08:53:25;101333.81;;;19.57;46.48
55460;BME280;41326;45.302;-122.946;2023-09-19T08:55:50;101331.03;;;19.58;46.49
55460;BME280;41326;45.302;-122.946;2023-09-19T08:58:19;101338.71;;;19.56;46.55
55460;BME280;41326;45.302;-122.946;2023-09-19T09:00:50;101343.56;;;19.54;46.56
55460;BME280;41326;45.302;-122.946;2023-09-19T09:03:20;101342.98;;;19.54;46.55
55460;BME280;41326;45.302;-122.946;2023-09-19T09:05:51;101347.24;;;19.55;46.54
55460;BME280;41326;45.302;-122.946;2023-09-19T09:08:21;101346.64;;;19.53;46.53
55460;BME280;41326;45.302;-122.946;2023-09-19T09:10:51;101349.96;;;19.53;46.53
55460;BME280;41326;45.302;-122.946;2023-09-19T09:13:22;101353.60;;;19.50;46.61
55460;BME280;41326;45.302;-122.946;2023-09-19T09:15:51;101351.41;;;19.54;46.56
55460;BME280;41326;45.302;-122.946;2023-09-19T09:18:21;101350.26;;;19.53;46.60
55460;BME280;41326;45.302;-122.946;2023-09-19T09:20:52;101356.19;;;19.52;46.62
55460;BME280;41326;45.302;-122.946;2023-09-19T09:23:22;101361.39;;;19.51;46.65
55460;BME280;41326;45.302;-122.946;2023-09-19T09:25:55;101357.42;;;19.53;46.59
55460;BME280;41326;45.302;-122.946;2023-09-19T09:28:26;101358.71;;;19.49;46.65
55460;BME280;41326;45.302;-122.946;2023-09-19T09:30:53;101361.47;;;19.48;46.72
55460;BME280;41326;45.302;-122.946;2023-09-19T09:33:24;101363.16;;;19.47;46.77
55460;BME280;41326;45.302;-122.946;2023-09-19T09:35:57;101365.39;;;19.47;46.82
55460;BME280;41326;45.302;-122.946;2023-09-19T09:38:25;101367.93;;;19.47;46.80
55460;BME280;41326;45.302;-122.946;2023-09-19T09:40:56;101370.20;;;19.45;46.86
55460;BME280;41326;45.302;-122.946;2023-09-19T09:43:32;101371.22;;;19.45;46.86
55460;BME280;41326;45.302;-122.946;2023-09-19T09:48:30;101376.70;;;19.46;46.83
55460;BME280;41326;45.302;-122.946;2023-09-19T09:50:55;101377.22;;;19.46;46.83
55460;BME280;41326;45.302;-122.946;2023-09-19T09:53:27;101379.83;;;19.42;46.95
55460;BME280;41326;45.302;-122.946;2023-09-19T09:56:01;101381.29;;;19.44;46.94
55460;BME280;41326;45.302;-122.946;2023-09-19T09:58:28;101387.42;;;19.44;46.92
55460;BME280;41326;45.302;-122.946;2023-09-19T10:00:59;101388.35;;;19.40;47.06
55460;BME280;41326;45.302;-122.946;2023-09-19T10:03:34;101384.06;;;19.41;47.03
55460;BME280;41326;45.302;-122.946;2023-09-19T10:06:00;101380.89;;;19.41;47.01
55460;BME280;41326;45.302;-122.946;2023-09-19T10:08:29;101379.31;;;19.42;46.97
55460;BME280;41326;45.302;-122.946;2023-09-19T10:10:59;101375.58;;;19.41;46.98
55460;BME280;41326;45.302;-122.946;2023-09-19T10:13:31;101377.44;;;19.38;47.08
55460;BME280;41326;45.302;-122.946;2023-09-19T10:16:00;101377.45;;;19.38;47.08
55460;BME280;41326;45.302;-122.946;2023-09-19T10:18:30;101372.77;;;19.40;47.02
55460;BME280;41326;45.302;-122.946;2023-09-19T10:21:01;101372.21;;;19.38;47.02
55460;BME280;41326;45.302;-122.946;2023-09-19T10:23:32;101377.30;;;19.36;47.07
55460;BME280;41326;45.302;-122.946;2023-09-19T10:26:02;101382.41;;;19.37;46.99
55460;BME280;41326;45.302;-122.946;2023-09-19T10:28:33;101379.26;;;19.36;46.94
55460;BME280;41326;45.302;-122.946;2023-09-19T10:31:02;101380.80;;;19.32;47.01
55460;BME280;41326;45.302;-122.946;2023-09-19T10:33:36;101382.95;;;19.34;46.97
55460;BME280;41326;45.302;-122.946;2023-09-19T10:36:05;101390.37;;;19.34;46.95
55460;BME280;41326;45.302;-122.946;2023-09-19T10:38:33;101384.06;;;19.31;47.01
55460;BME280;41326;45.302;-122.946;2023-09-19T10:41:03;101380.46;;;19.31;46.99
55460;BME280;41326;45.302;-122.946;2023-09-19T10:43:35;101384.79;;;19.30;46.97
55460;BME280;41326;45.302;-122.946;2023-09-19T10:46:07;101384.01;;;19.34;46.82
55460;BME280;41326;45.302;-122.946;2023-09-19T10:48:34;101383.59;;;19.31;46.82
55460;BME280;41326;45.302;-122.946;2023-09-19T10:51:10;101386.34;;;19.30;46.83
55460;BME280;41326;45.302;-122.946;2023-09-19T10:53:41;101386.10;;;19.30;46.82
55460;BME280;41326;45.302;-122.946;2023-09-19T10:56:07;101382.07;;;19.29;46.81
55460;BME280;41326;45.302;-122.946;2023-09-19T10:58:37;101382.26;;;19.30;46.79
55460;BME280;41326;45.302;-122.946;2023-09-19T11:01:07;101384.12;;;19.27;46.85
55460;BME280;41326;45.302;-122.946;2023-09-19T11:03:37;101382.36;;;19.26;46.84
55460;BME280;41326;45.302;-122.946;2023-09-19T11:06:09;101376.33;;;19.27;46.80
55460;BME280;41326;45.302;-122.946;2023-09-19T11:11:08;101378.02;;;19.26;46.75
55460;BME280;41326;45.302;-122.946;2023-09-19T11:13:37;101376.63;;;19.25;46.80
55460;BME280;41326;45.302;-122.946;2023-09-19T11:16:10;101379.89;;;19.25;46.79
55460;BME280;41326;45.302;-122.946;2023-09-19T11:23:38;101379.06;;;19.26;46.73
55460;BME280;41326;45.302;-122.946;2023-09-19T11:26:10;101384.67;;;19.28;46.65
55460;BME280;41326;45.302;-122.946;2023-09-19T11:28:39;101392.13;;;19.25;46.68
55460;BME280;41326;45.302;-122.946;2023-09-19T11:33:39;101393.45;;;19.23;46.78
55460;BME280;41326;45.302;-122.946;2023-09-19T11:36:10;101393.33;;;19.25;46.74
55460;BME280;41326;45.302;-122.946;2023-09-19T11:43:40;101382.27;;;19.21;46.83
55460;BME280;41326;45.302;-122.946;2023-09-19T11:46:12;101380.34;;;19.20;46.85
55460;BME280;41326;45.302;-122.946;2023-09-19T11:48:44;101378.95;;;19.18;46.89
55460;BME280;41326;45.302;-122.946;2023-09-19T11:51:16;101373.45;;;19.18;46.94
55460;BME280;41326;45.302;-122.946;2023-09-19T11:53:43;101372.26;;;19.16;47.01
55460;BME280;41326;45.302;-122.946;2023-09-19T11:56:12;101368.41;;;19.17;47.01
55460;BME280;41326;45.302;-122.946;2023-09-19T11:58:43;101361.88;;;19.14;47.09
55460;BME280;41326;45.302;-122.946;2023-09-19T12:01:13;101352.90;;;19.16;47.08
55460;BME280;41326;45.302;-122.946;2023-09-19T12:03:45;101349.33;;;19.16;47.06
55460;BME280;41326;45.302;-122.946;2023-09-19T12:06:17;101353.45;;;19.16;47.02
55460;BME280;41326;45.302;-122.946;2023-09-19T12:08:45;101356.04;;;19.16;46.96
55460;BME280;41326;45.302;-122.946;2023-09-19T12:11:17;101361.15;;;19.13;47.08
55460;BME280;41326;45.302;-122.946;2023-09-19T12:13:47;101371.18;;;19.12;47.15
55460;BME280;41326;45.302;-122.946;2023-09-19T12:16:18;101375.98;;;19.12;47.21
55460;BME280;41326;45.302;-122.946;2023-09-19T12:18:45;101385.54;;;19.12;47.21
55460;BME280;41326;45.302;-122.946;2023-09-19T12:21:23;101398.54;;;19.14;47.21
55460;BME280;41326;45.302;-122.946;2023-09-19T12:23:48;101397.35;;;19.12;47.25
55460;BME280;41326;45.302;-122.946;2023-09-19T12:26:15;101409.32;;;19.14;47.18
55460;BME280;41326;45.302;-122.946;2023-09-19T12:28:47;101413.66;;;19.12;47.20
55460;BME280;41326;45.302;-122.946;2023-09-19T12:31:17;101422.37;;;19.09;47.32
55460;BME280;41326;45.302;-122.946;2023-09-19T12:33:46;101420.28;;;19.08;47.37
55460;BME280;41326;45.302;-122.946;2023-09-19T12:36:21;101424.96;;;19.08;47.41
55460;BME280;41326;45.302;-122.946;2023-09-19T12:38:52;101430.71;;;19.05;47.47
55460;BME280;41326;45.302;-122.946;2023-09-19T12:41:17;101425.54;;;19.05;47.50
55460;BME280;41326;45.302;-122.946;2023-09-19T12:43:47;101426.17;;;19.03;47.55
55460;BME280;41326;45.302;-122.946;2023-09-19T12:46:20;101408.77;;;19.04;47.47
55460;BME280;41326;45.302;-122.946;2023-09-19T12:48:48;101406.89;;;19.04;47.43
55460;BME280;41326;45.302;-122.946;2023-09-19T12:51:19;101412.50;;;19.03;47.46
55460;BME280;41326;45.302;-122.946;2023-09-19T12:53:56;101400.84;;;19.02;47.50
55460;BME280;41326;45.302;-122.946;2023-09-19T12:56:20;101408.06;;;19.04;47.47
55460;BME280;41326;45.302;-122.946;2023-09-19T12:58:54;101394.66;;;19.02;47.50
55460;BME280;41326;45.302;-122.946;2023-09-19T13:01:21;101395.32;;;19.01;47.54